sensor_id;sensor_type;location;lat;lon;timestamp;P1;durP1;ratioP1;P2;durP2;ratioP2
37787;SDS011;23627;53.302;-6.362;2024-02-15T00:02:25;0.90;;;0.40;;
37787;SDS011;23627;53.302;-6.362;2024-02-15T00:04:51;0.63;;;0.40;;
37787;SDS011;23627;53.302;-6.362;2024-02-15T00:07:17;1.05;;;0.40;;
37787;SDS011;23627;53.302;-6.362;2024-02-15T00:09:45;1.67;;;0.40;;
37787;SDS011;23627;53.302;-6.362;2024-02-15T00:12:10;0.68;;;0.40;;
37787;SDS011;23627;53.302;-6.362;2024-02-15T00:14:36;1.35;;;0.38;;
37787;SDS011;23627;53.302;-6.362;2024-02-15T00:17:03;1.00;;;0.30;;
37787;SDS011;23627;53.302;-6.362;2024-02-15T00:19:29;0.88;;;0.40;;
37787;SDS011;23627;53.302;-6.362;2024-02-15T00:21:55;0.73;;;0.40;;
37787;SDS011;23627;53.302;-6.362;2024-02-15T00:24:22;1.38;;;0.30;;
37787;SDS011;23627;53.302;-6.362;2024-02-15T00:26:49;1.13;;;0.38;;
37787;SDS011;23627;53.302;-6.362;2024-02-15T00:29:15;0.77;;;0.30;;
37787;SDS011;23627;53.302;-6.362;2024-02-15T00:31:40;1.40;;;0.30;;
37787;SDS011;23627;53.302;-6.362;2024-02-15T00:34:06;1.83;;;0.47;;
37787;SDS011;23627;53.302;-6.362;2024-02-15T00:36:33;1.40;;;0.30;;
37787;SDS011;23627;53.302;-6.362;2024-02-15T00:38:59;1.02;;;0.30;;
37787;SDS011;23627;53.302;-6.362;2024-02-15T00:41:25;1.02;;;0.30;;
37787;SDS011;23627;53.302;-6.362;2024-02-15T00:43:51;1.55;;;0.32;;
37787;SDS011;23627;53.302;-6.362;2024-02-15T00:46:17;0.60;;;0.30;;
37787;SDS011;23627;53.302;-6.362;2024-02-15T00:48:43;0.90;;;0.40;;
37787;SDS011;23627;53.302;-6.362;2024-02-15T00:51:09;1.60;;;0.40;;
37787;SDS011;23627;53.302;-6.362;2024-02-15T00:53:34;0.65;;;0.30;;
37787;SDS011;23627;53.302;-6.362;2024-02-15T00:56:00;1.15;;;0.38;;
37787;SDS011;23627;53.302;-6.362;2024-02-15T00:58:26;2.47;;;0.40;;
37787;SDS011;23627;53.302;-6.362;2024-02-15T01:00:52;0.68;;;0.32;;
37787;SDS011;23627;53.302;-6.362;2024-02-15T01:03:18;0.80;;;0.30;;
37787;SDS011;23627;53.302;-6.362;2024-02-15T01:05:45;0.57;;;0.28;;
37787;SDS011;23627;53.302;-6.362;2024-02-15T01:08:11;0.40;;;0.20;;
37787;SDS011;23627;53.302;-6.362;2024-02-15T01:10:37;0.52;;;0.30;;
37787;SDS011;23627;53.302;-6.362;2024-02-15T01:13:03;1.50;;;0.45;;
37787;SDS011;23627;53.302;-6.362;2024-02-15T01:15:29;1.65;;;0.32;;
37787;SDS011;23627;53.302;-6.362;2024-02-15T01:17:55;1.95;;;0.38;;
37787;SDS011;23627;53.302;-6.362;2024-02-15T01:20:20;1.92;;;0.60;;
37787;SDS011;23627;53.302;-6.362;2024-02-15T01:22:46;2.22;;;0.55;;
37787;SDS011;23627;53.302;-6.362;2024-02-15T01:25:12;1.75;;;0.60;;
37787;SDS011;23627;53.302;-6.362;2024-02-15T01:27:40;3.55;;;0.60;;
37787;SDS011;23627;53.302;-6.362;2024-02-15T01:30:06;3.72;;;0.73;;
37787;SDS011;23627;53.302;-6.362;2024-02-15T01:32:33;2.35;;;0.60;;
37787;SDS011;23627;53.302;-6.362;2024-02-15T01:34:59;5.45;;;0.70;;
37787;SDS011;23627;53.302;-6.362;2024-02-15T01:40:47;3.65;;;0.75;;
37787;SDS011;23627;53.302;-6.362;2024-02-15T01:43:13;3.90;;;0.57;;
37787;SDS011;23627;53.302;-6.362;2024-02-15T01:45:40;2.35;;;0.50;;
37787;SDS011;23627;53.302;-6.362;2024-02-15T01:48:06;3.20;;;0.65;;
37787;SDS011;23627;53.302;-6.362;2024-02-15T01:50:32;3.83;;;0.60;;
37787;SDS011;23627;53.302;-6.362;2024-02-15T01:52:59;2.60;;;0.70;;
37787;SDS011;23627;53.302;-6.362;2024-02-15T01:55:29;2.80;;;0.80;;
37787;SDS011;23627;53.302;-6.362;2024-02-15T01:57:54;2.88;;;0.70;;
37787;SDS011;23627;53.302;-6.362;2024-02-15T02:00:20;3.08;;;0.60;;
37787;SDS011;23627;53.302;-6.362;2024-02-15T02:02:47;2.40;;;0.60;;
37787;SDS011;23627;53.302;-6.362;2024-02-15T02:05:13;1.10;;;0.40;;
37787;SDS011;23627;53.302;-6.362;2024-02-15T02:07:39;2.30;;;0.50;;
37787;SDS011;23627;53.302;-6.362;2024-02-15T02:10:06;3.22;;;0.65;;
37787;SDS011;23627;53.302;-6.362;2024-02-15T02:12:34;2.13;;;0.50;;
37787;SDS011;23627;53.302;-6.362;2024-02-15T02:14:59;2.03;;;0.50;;
37787;SDS011;23627;53.302;-6.362;2024-02-15T02:17:25;1.85;;;0.30;;
37787;SDS011;23627;53.302;-6.362;2024-02-15T02:19:51;2.80;;;0.47;;
37787;SDS011;23627;53.302;-6.362;2024-02-15T02:22:17;2.00;;;0.40;;
37787;SDS011;23627;53.302;-6.362;2024-02-15T02:24:56;0.52;;;0.25;;
37787;SDS011;23627;53.302;-6.362;2024-02-15T02:27:29;2.50;;;0.52;;
37787;SDS011;23627;53.302;-6.362;2024-02-15T02:29:56;2.75;;;0.30;;
37787;SDS011;23627;53.302;-6.362;2024-02-15T02:32:24;1.60;;;0.22;;
37787;SDS011;23627;53.302;-6.362;2024-02-15T02:34:51;0.82;;;0.20;;
37787;SDS011;23627;53.302;-6.362;2024-02-15T02:37:22;1.85;;;0.40;;
37787;SDS011;23627;53.302;-6.362;2024-02-15T02:39:49;1.23;;;0.20;;
37787;SDS011;23627;53.302;-6.362;2024-02-15T02:42:15;1.05;;;0.30;;
37787;SDS011;23627;53.302;-6.362;2024-02-15T02:44:41;0.70;;;0.10;;
37787;SDS011;23627;53.302;-6.362;2024-02-15T02:47:06;0.57;;;0.10;;
37787;SDS011;23627;53.302;-6.362;2024-02-15T02:49:32;1.00;;;0.17;;
37787;SDS011;23627;53.302;-6.362;2024-02-15T02:52:00;0.80;;;0.20;;
37787;SDS011;23627;53.302;-6.362;2024-02-15T02:54:26;1.63;;;0.25;;
37787;SDS011;23627;53.302;-6.362;2024-02-15T02:56:53;0.95;;;0.30;;
37787;SDS011;23627;53.302;-6.362;2024-02-15T02:59:19;0.98;;;0.10;;
37787;SDS011;23627;53.302;-6.362;2024-02-15T03:01:45;0.77;;;0.25;;
37787;SDS011;23627;53.302;-6.362;2024-02-15T03:04:10;0.95;;;0.30;;
37787;SDS011;23627;53.302;-6.362;2024-02-15T03:06:42;0.82;;;0.20;;
37787;SDS011;23627;53.302;-6.362;2024-02-15T03:09:08;0.65;;;0.10;;
37787;SDS011;23627;53.302;-6.362;2024-02-15T03:11:35;0.40;;;0.10;;
37787;SDS011;23627;53.302;-6.362;2024-02-15T03:14:01;0.52;;;0.10;;
37787;SDS011;23627;53.302;-6.362;2024-02-15T03:16:30;0.80;;;0.13;;
37787;SDS011;23627;53.302;-6.362;2024-02-15T03:18:56;0.47;;;0.10;;
37787;SDS011;23627;53.302;-6.362;2024-02-15T03:21:22;0.65;;;0.10;;
37787;SDS011;23627;53.302;-6.362;2024-02-15T03:23:48;0.50;;;0.20;;
37787;SDS011;23627;53.302;-6.362;2024-02-15T03:26:14;0.32;;;0.10;;
37787;SDS011;23627;53.302;-6.362;2024-02-15T03:28:39;0.20;;;0.10;;
37787;SDS011;23627;53.302;-6.362;2024-02-15T03:31:05;0.80;;;0.15;;
37787;SDS011;23627;53.302;-6.362;2024-02-15T03:33:31;1.25;;;0.13;;
37787;SDS011;23627;53.302;-6.362;2024-02-15T03:35:59;0.35;;;0.10;;
37787;SDS011;23627;53.302;-6.362;2024-02-15T03:38:26;0.40;;;0.17;;
37787;SDS011;23627;53.302;-6.362;2024-02-15T03:40:54;0.73;;;0.10;;
37787;SDS011;23627;53.302;-6.362;2024-02-15T03:43:20;0.10;;;0.00;;
37787;SDS011;23627;53.302;-6.362;2024-02-15T03:45:48;0.17;;;0.00;;
37787;SDS011;23627;53.302;-6.362;2024-02-15T03:48:15;0.30;;;0.10;;
37787;SDS011;23627;53.302;-6.362;2024-02-15T03:50:40;0.52;;;0.15;;
37787;SDS011;23627;53.302;-6.362;2024-02-15T03:53:08;0.40;;;0.15;;
37787;SDS011;23627;53.302;-6.362;2024-02-15T03:55:38;0.93;;;0.17;;
37787;SDS011;23627;53.302;-6.362;2024-02-15T03:58:04;0.75;;;0.10;;
37787;SDS011;23627;53.302;-6.362;2024-02-15T04:00:30;0.40;;;0.10;;
37787;SDS011;23627;53.302;-6.362;2024-02-15T04:02:56;0.25;;;0.10;;
37787;SDS011;23627;53.302;-6.362;2024-02-15T04:05:21;0.17;;;0.10;;
37787;SDS011;23627;53.302;-6.362;2024-02-15T04:07:48;0.10;;;0.00;;
37787;SDS011;23627;53.302;-6.362;2024-02-15T04:10:14;0.20;;;0.10;;
37787;SDS011;23627;53.302;-6.362;2024-02-15T04:12:43;0.32;;;0.10;;
37787;SDS011;23627;53.302;-6.362;2024-02-15T04:15:08;0.25;;;0.10;;
37787;SDS011;23627;53.302;-6.362;2024-02-15T04:17:39;0.50;;;0.20;;
37787;SDS011;23627;53.302;-6.362;2024-02-15T04:20:05;0.40;;;0.10;;
37787;SDS011;23627;53.302;-6.362;2024-02-15T04:22:33;0.30;;;0.10;;
37787;SDS011;23627;53.302;-6.362;2024-02-15T04:25:02;0.30;;;0.05;;
37787;SDS011;23627;53.302;-6.362;2024-02-15T04:27:31;0.20;;;0.10;;
37787;SDS011;23627;53.302;-6.362;2024-02-15T04:29:57;0.40;;;0.10;;
37787;SDS011;23627;53.302;-6.362;2024-02-15T04:32:22;1.23;;;0.10;;
37787;SDS011;23627;53.302;-6.362;2024-02-15T04:34:48;0.30;;;0.10;;
37787;SDS011;23627;53.302;-6.362;2024-02-15T04:37:14;0.32;;;0.17;;
37787;SDS011;23627;53.302;-6.362;2024-02-15T04:39:41;0.10;;;0.10;;
37787;SDS011;23627;53.302;-6.362;2024-02-15T04:42:07;0.65;;;0.10;;
37787;SDS011;23627;53.302;-6.362;2024-02-15T04:44:37;0.40;;;0.17;;
37787;SDS011;23627;53.302;-6.362;2024-02-15T04:47:04;0.57;;;0.13;;
37787;SDS011;23627;53.302;-6.362;2024-02-15T04:49:30;0.15;;;0.10;;
37787;SDS011;23627;53.302;-6.362;2024-02-15T04:51:56;0.13;;;0.00;;
37787;SDS011;23627;53.302;-6.362;2024-02-15T04:54:29;0.30;;;0.10;;
37787;SDS011;23627;53.302;-6.362;2024-02-15T04:56:54;0.20;;;0.10;;
37787;SDS011;23627;53.302;-6.362;2024-02-15T04:59:22;0.40;;;0.20;;
37787;SDS011;23627;53.302;-6.362;2024-02-15T05:01:51;0.40;;;0.13;;
37787;SDS011;23627;53.302;-6.362;2024-02-15T05:04:21;0.30;;;0.10;;
37787;SDS011;23627;53.302;-6.362;2024-02-15T05:06:49;0.50;;;0.10;;
37787;SDS011;23627;53.302;-6.362;2024-02-15T05:09:16;0.52;;;0.10;;
37787;SDS011;23627;53.302;-6.362;2024-02-15T05:11:43;1.08;;;0.13;;
37787;SDS011;23627;53.302;-6.362;2024-02-15T05:14:16;0.57;;;0.10;;
37787;SDS011;23627;53.302;-6.362;2024-02-15T05:16:45;0.90;;;0.10;;
37787;SDS011;23627;53.302;-6.362;2024-02-15T05:19:15;0.30;;;0.10;;
37787;SDS011;23627;53.302;-6.362;2024-02-15T05:21:44;0.40;;;0.10;;
37787;SDS011;23627;53.302;-6.362;2024-02-15T05:24:12;1.33;;;0.10;;
37787;SDS011;23627;53.302;-6.362;2024-02-15T05:26:39;0.20;;;0.10;;
37787;SDS011;23627;53.302;-6.362;2024-02-15T05:29:07;0.55;;;0.10;;
37787;SDS011;23627;53.302;-6.362;2024-02-15T05:31:33;0.20;;;0.10;;
37787;SDS011;23627;53.302;-6.362;2024-02-15T05:33:59;0.10;;;0.10;;
37787;SDS011;23627;53.302;-6.362;2024-02-15T05:36:25;0.20;;;0.10;;
37787;SDS011;23627;53.302;-6.362;2024-02-15T05:38:51;0.30;;;0.10;;
37787;SDS011;23627;53.302;-6.362;2024-02-15T05:41:18;0.20;;;0.10;;
37787;SDS011;23627;53.302;-6.362;2024-02-15T05:43:46;0.90;;;0.10;;
37787;SDS011;23627;53.302;-6.362;2024-02-15T05:46:18;0.17;;;0.10;;
37787;SDS011;23627;53.302;-6.362;2024-02-15T05:48:46;0.32;;;0.10;;
37787;SDS011;23627;53.302;-6.362;2024-02-15T05:51:12;0.17;;;0.10;;
37787;SDS011;23627;53.302;-6.362;2024-02-15T05:53:38;0.75;;;0.10;;
37787;SDS011;23627;53.302;-6.362;2024-02-15T05:56:07;0.30;;;0.10;;
37787;SDS011;23627;53.302;-6.362;2024-02-15T05:58:34;0.95;;;0.10;;
37787;SDS011;23627;53.302;-6.362;2024-02-15T06:01:03;0.35;;;0.20;;
37787;SDS011;23627;53.302;-6.362;2024-02-15T06:03:37;0.80;;;0.10;;
37787;SDS011;23627;53.302;-6.362;2024-02-15T06:06:03;1.00;;;0.20;;
37787;SDS011;23627;53.302;-6.362;2024-02-15T06:08:33;0.73;;;0.10;;
37787;SDS011;23627;53.302;-6.362;2024-02-15T06:10:59;0.50;;;0.20;;
37787;SDS011;23627;53.302;-6.362;2024-02-15T06:13:26;0.75;;;0.20;;
37787;SDS011;23627;53.302;-6.362;2024-02-15T06:15:52;0.55;;;0.20;;
37787;SDS011;23627;53.302;-6.362;2024-02-15T06:18:23;0.77;;;0.30;;
37787;SDS011;23627;53.302;-6.362;2024-02-15T06:20:51;0.95;;;0.30;;
37787;SDS011;23627;53.302;-6.362;2024-02-15T06:23:17;0.75;;;0.20;;
37787;SDS011;23627;53.302;-6.362;2024-02-15T06:25:43;0.80;;;0.30;;
37787;SDS011;23627;53.302;-6.362;2024-02-15T06:28:10;1.00;;;0.40;;
37787;SDS011;23627;53.302;-6.362;2024-02-15T06:30:45;1.23;;;0.35;;
37787;SDS011;23627;53.302;-6.362;2024-02-15T06:33:30;0.70;;;0.22;;
37787;SDS011;23627;53.302;-6.362;2024-02-15T06:36:14;1.10;;;0.30;;
37787;SDS011;23627;53.302;-6.362;2024-02-15T06:38:58;1.35;;;0.30;;
37787;SDS011;23627;53.302;-6.362;2024-02-15T06:41:42;1.30;;;0.30;;
37787;SDS011;23627;53.302;-6.362;2024-02-15T06:44:08;0.30;;;0.10;;
37787;SDS011;23627;53.302;-6.362;2024-02-15T06:46:34;1.48;;;0.47;;
37787;SDS011;23627;53.302;-6.362;2024-02-15T06:49:00;1.50;;;0.45;;
37787;SDS011;23627;53.302;-6.362;2024-02-15T06:51:26;0.75;;;0.28;;
37787;SDS011;23627;53.302;-6.362;2024-02-15T06:53:52;0.47;;;0.20;;
37787;SDS011;23627;53.302;-6.362;2024-02-15T06:56:20;0.40;;;0.13;;
37787;SDS011;23627;53.302;-6.362;2024-02-15T06:58:47;0.50;;;0.20;;
37787;SDS011;23627;53.302;-6.362;2024-02-15T07:01:13;0.20;;;0.10;;
37787;SDS011;23627;53.302;-6.362;2024-02-15T07:03:41;0.85;;;0.10;;
37787;SDS011;23627;53.302;-6.362;2024-02-15T07:06:09;1.00;;;0.10;;
37787;SDS011;23627;53.302;-6.362;2024-02-15T07:08:35;0.20;;;0.10;;
37787;SDS011;23627;53.302;-6.362;2024-02-15T07:11:01;0.22;;;0.05;;
37787;SDS011;23627;53.302;-6.362;2024-02-15T07:13:31;0.80;;;0.10;;
37787;SDS011;23627;53.302;-6.362;2024-02-15T07:15:57;0.40;;;0.10;;
37787;SDS011;23627;53.302;-6.362;2024-02-15T07:18:22;0.20;;;0.00;;
37787;SDS011;23627;53.302;-6.362;2024-02-15T07:20:50;1.33;;;0.13;;
37787;SDS011;23627;53.302;-6.362;2024-02-15T07:23:16;0.75;;;0.00;;
37787;SDS011;23627;53.302;-6.362;2024-02-15T07:25:42;0.30;;;0.10;;
37787;SDS011;23627;53.302;-6.362;2024-02-15T07:28:07;0.22;;;0.00;;
37787;SDS011;23627;53.302;-6.362;2024-02-15T07:30:34;0.30;;;0.10;;
37787;SDS011;23627;53.302;-6.362;2024-02-15T07:32:59;0.25;;;0.00;;
37787;SDS011;23627;53.302;-6.362;2024-02-15T07:35:25;1.05;;;0.20;;
37787;SDS011;23627;53.302;-6.362;2024-02-15T07:37:54;0.55;;;0.00;;
37787;SDS011;23627;53.302;-6.362;2024-02-15T07:40:22;0.20;;;0.10;;
37787;SDS011;23627;53.302;-6.362;2024-02-15T07:42:52;1.08;;;0.10;;
37787;SDS011;23627;53.302;-6.362;2024-02-15T07:45:20;0.38;;;0.10;;
37787;SDS011;23627;53.302;-6.362;2024-02-15T07:47:45;0.35;;;0.10;;
37787;SDS011;23627;53.302;-6.362;2024-02-15T07:50:17;0.30;;;0.03;;
37787;SDS011;23627;53.302;-6.362;2024-02-15T07:52:46;0.25;;;0.10;;
37787;SDS011;23627;53.302;-6.362;2024-02-15T07:55:13;0.95;;;0.10;;
37787;SDS011;23627;53.302;-6.362;2024-02-15T07:57:39;0.30;;;0.00;;
37787;SDS011;23627;53.302;-6.362;2024-02-15T08:00:05;1.88;;;0.10;;
37787;SDS011;23627;53.302;-6.362;2024-02-15T08:02:35;0.55;;;0.00;;
37787;SDS011;23627;53.302;-6.362;2024-02-15T08:05:07;0.77;;;0.10;;
37787;SDS011;23627;53.302;-6.362;2024-02-15T08:07:40;0.22;;;0.10;;
37787;SDS011;23627;53.302;-6.362;2024-02-15T08:10:07;0.35;;;0.00;;
37787;SDS011;23627;53.302;-6.362;2024-02-15T08:12:46;1.08;;;0.15;;
37787;SDS011;23627;53.302;-6.362;2024-02-15T08:15:17;0.10;;;0.03;;
37787;SDS011;23627;53.302;-6.362;2024-02-15T08:17:44;0.30;;;0.10;;
37787;SDS011;23627;53.302;-6.362;2024-02-15T08:20:14;0.30;;;0.08;;
37787;SDS011;23627;53.302;-6.362;2024-02-15T08:22:42;0.32;;;0.10;;
37787;SDS011;23627;53.302;-6.362;2024-02-15T08:25:09;0.50;;;0.10;;
37787;SDS011;23627;53.302;-6.362;2024-02-15T08:27:43;1.27;;;0.10;;
37787;SDS011;23627;53.302;-6.362;2024-02-15T08:30:14;0.57;;;0.00;;
37787;SDS011;23627;53.302;-6.362;2024-02-15T08:32:40;1.77;;;0.00;;
37787;SDS011;23627;53.302;-6.362;2024-02-15T08:35:07;0.20;;;0.10;;
37787;SDS011;23627;53.302;-6.362;2024-02-15T08:37:37;1.20;;;0.10;;
37787;SDS011;23627;53.302;-6.362;2024-02-15T08:40:04;0.30;;;0.10;;
37787;SDS011;23627;53.302;-6.362;2024-02-15T08:42:39;0.28;;;0.08;;
37787;SDS011;23627;53.302;-6.362;2024-02-15T08:45:06;0.50;;;0.10;;
37787;SDS011;23627;53.302;-6.362;2024-02-15T08:47:39;1.55;;;0.40;;
37787;SDS011;23627;53.302;-6.362;2024-02-15T08:50:06;2.60;;;0.90;;
37787;SDS011;23627;53.302;-6.362;2024-02-15T08:52:38;1.40;;;0.38;;
37787;SDS011;23627;53.302;-6.362;2024-02-15T08:55:05;1.23;;;0.40;;
37787;SDS011;23627;53.302;-6.362;2024-02-15T08:57:32;1.45;;;0.70;;
37787;SDS011;23627;53.302;-6.362;2024-02-15T08:59:59;1.83;;;0.57;;
37787;SDS011;23627;53.302;-6.362;2024-02-15T09:02:24;1.33;;;0.50;;
37787;SDS011;23627;53.302;-6.362;2024-02-15T09:04:50;1.10;;;0.45;;
37787;SDS011;23627;53.302;-6.362;2024-02-15T09:07:19;1.25;;;0.40;;
37787;SDS011;23627;53.302;-6.362;2024-02-15T09:09:46;0.50;;;0.25;;
37787;SDS011;23627;53.302;-6.362;2024-02-15T09:12:12;0.52;;;0.43;;
37787;SDS011;23627;53.302;-6.362;2024-02-15T09:14:38;0.35;;;0.17;;
37787;SDS011;23627;53.302;-6.362;2024-02-15T09:17:04;0.47;;;0.20;;
37787;SDS011;23627;53.302;-6.362;2024-02-15T09:19:33;0.80;;;0.20;;
37787;SDS011;23627;53.302;-6.362;2024-02-15T09:22:00;0.55;;;0.20;;
37787;SDS011;23627;53.302;-6.362;2024-02-15T09:24:26;0.75;;;0.28;;
37787;SDS011;23627;53.302;-6.362;2024-02-15T09:26:53;0.30;;;0.28;;
37787;SDS011;23627;53.302;-6.362;2024-02-15T09:29:19;0.50;;;0.20;;
37787;SDS011;23627;53.302;-6.362;2024-02-15T09:31:46;0.30;;;0.10;;
37787;SDS011;23627;53.302;-6.362;2024-02-15T09:34:13;0.52;;;0.10;;
37787;SDS011;23627;53.302;-6.362;2024-02-15T09:36:39;0.50;;;0.20;;
37787;SDS011;23627;53.302;-6.362;2024-02-15T09:39:04;0.55;;;0.13;;
37787;SDS011;23627;53.302;-6.362;2024-02-15T09:41:31;0.20;;;0.10;;
37787;SDS011;23627;53.302;-6.362;2024-02-15T09:43:58;0.10;;;0.08;;
37787;SDS011;23627;53.302;-6.362;2024-02-15T09:46:24;1.33;;;0.10;;
37787;SDS011;23627;53.302;-6.362;2024-02-15T09:48:51;0.20;;;0.08;;
37787;SDS011;23627;53.302;-6.362;2024-02-15T09:51:23;1.20;;;0.10;;
37787;SDS011;23627;53.302;-6.362;2024-02-15T09:53:51;0.40;;;0.20;;
37787;SDS011;23627;53.302;-6.362;2024-02-15T09:56:18;0.47;;;0.15;;
37787;SDS011;23627;53.302;-6.362;2024-02-15T09:58:49;0.30;;;0.10;;
37787;SDS011;23627;53.302;-6.362;2024-02-15T10:01:16;0.55;;;0.20;;
37787;SDS011;23627;53.302;-6.362;2024-02-15T10:03:45;0.20;;;0.10;;
37787;SDS011;23627;53.302;-6.362;2024-02-15T10:06:14;0.73;;;0.10;;
37787;SDS011;23627;53.302;-6.362;2024-02-15T10:08:40;0.10;;;0.10;;
37787;SDS011;23627;53.302;-6.362;2024-02-15T10:11:08;1.00;;;0.10;;
37787;SDS011;23627;53.302;-6.362;2024-02-15T10:13:35;0.20;;;0.10;;
37787;SDS011;23627;53.302;-6.362;2024-02-15T10:19:09;0.55;;;0.10;;
37787;SDS011;23627;53.302;-6.362;2024-02-15T10:21:35;0.20;;;0.10;;
37787;SDS011;23627;53.302;-6.362;2024-02-15T10:24:07;0.20;;;0.10;;
37787;SDS011;23627;53.302;-6.362;2024-02-15T10:26:34;1.45;;;0.10;;
37787;SDS011;23627;53.302;-6.362;2024-02-15T10:29:08;0.17;;;0.10;;
37787;SDS011;23627;53.302;-6.362;2024-02-15T10:31:36;0.32;;;0.10;;
37787;SDS011;23627;53.302;-6.362;2024-02-15T10:34:06;0.10;;;0.10;;
37787;SDS011;23627;53.302;-6.362;2024-02-15T10:36:33;0.25;;;0.00;;
37787;SDS011;23627;53.302;-6.362;2024-02-15T10:39:17;0.10;;;0.00;;
37787;SDS011;23627;53.302;-6.362;2024-02-15T10:41:50;0.10;;;0.00;;
37787;SDS011;23627;53.302;-6.362;2024-02-15T10:44:21;0.38;;;0.08;;
37787;SDS011;23627;53.302;-6.362;2024-02-15T10:46:52;0.10;;;0.00;;
37787;SDS011;23627;53.302;-6.362;2024-02-15T10:51:46;0.20;;;0.08;;
37787;SDS011;23627;53.302;-6.362;2024-02-15T10:54:27;0.10;;;0.00;;
37787;SDS011;23627;53.302;-6.362;2024-02-15T10:57:11;0.38;;;0.10;;
37787;SDS011;23627;53.302;-6.362;2024-02-15T10:59:41;0.15;;;0.10;;
37787;SDS011;23627;53.302;-6.362;2024-02-15T11:02:41;0.38;;;0.10;;
37787;SDS011;23627;53.302;-6.362;2024-02-15T11:05:13;0.10;;;0.05;;
37787;SDS011;23627;53.302;-6.362;2024-02-15T11:07:46;0.03;;;0.00;;
37787;SDS011;23627;53.302;-6.362;2024-02-15T11:10:11;0.17;;;0.03;;
37787;SDS011;23627;53.302;-6.362;2024-02-15T11:12:42;0.10;;;0.10;;
37787;SDS011;23627;53.302;-6.362;2024-02-15T11:15:11;0.28;;;0.10;;
37787;SDS011;23627;53.302;-6.362;2024-02-15T11:20:06;0.38;;;0.10;;
37787;SDS011;23627;53.302;-6.362;2024-02-15T11:22:35;0.10;;;0.00;;
37787;SDS011;23627;53.302;-6.362;2024-02-15T11:25:07;0.20;;;0.00;;
37787;SDS011;23627;53.302;-6.362;2024-02-15T11:27:37;0.88;;;0.10;;
37787;SDS011;23627;53.302;-6.362;2024-02-15T11:30:04;0.38;;;0.10;;
37787;SDS011;23627;53.302;-6.362;2024-02-15T11:32:46;0.22;;;0.10;;
37787;SDS011;23627;53.302;-6.362;2024-02-15T11:40:21;0.55;;;0.10;;
37787;SDS011;23627;53.302;-6.362;2024-02-15T11:42:52;0.47;;;0.10;;
37787;SDS011;23627;53.302;-6.362;2024-02-15T11:45:19;0.20;;;0.10;;
37787;SDS011;23627;53.302;-6.362;2024-02-15T11:47:49;0.75;;;0.28;;
37787;SDS011;23627;53.302;-6.362;2024-02-15T11:50:16;0.43;;;0.20;;
37787;SDS011;23627;53.302;-6.362;2024-02-15T11:52:46;1.05;;;0.20;;
37787;SDS011;23627;53.302;-6.362;2024-02-15T11:55:14;0.38;;;0.15;;
37787;SDS011;23627;53.302;-6.362;2024-02-15T11:57:56;1.02;;;0.30;;
37787;SDS011;23627;53.302;-6.362;2024-02-15T12:00:35;1.23;;;0.22;;
37787;SDS011;23627;53.302;-6.362;2024-02-15T12:03:22;2.42;;;0.40;;
37787;SDS011;23627;53.302;-6.362;2024-02-15T12:06:07;1.23;;;0.32;;
37787;SDS011;23627;53.302;-6.362;2024-02-15T12:08:52;2.33;;;0.40;;
37787;SDS011;23627;53.302;-6.362;2024-02-15T12:11:37;2.88;;;0.80;;
37787;SDS011;23627;53.302;-6.362;2024-02-15T12:14:22;2.47;;;0.50;;
37787;SDS011;23627;53.302;-6.362;2024-02-15T12:17:07;1.75;;;0.60;;
37787;SDS011;23627;53.302;-6.362;2024-02-15T12:19:52;1.73;;;0.60;;
37787;SDS011;23627;53.302;-6.362;2024-02-15T12:22:24;1.30;;;0.80;;
37787;SDS011;23627;53.302;-6.362;2024-02-15T12:25:00;2.20;;;0.50;;
37787;SDS011;23627;53.302;-6.362;2024-02-15T12:27:31;1.27;;;0.68;;
37787;SDS011;23627;53.302;-6.362;2024-02-15T12:29:57;0.90;;;0.40;;
37787;SDS011;23627;53.302;-6.362;2024-02-15T12:32:24;1.88;;;0.40;;
37787;SDS011;23627;53.302;-6.362;2024-02-15T12:34:51;1.27;;;0.60;;
37787;SDS011;23627;53.302;-6.362;2024-02-15T12:37:19;3.15;;;0.68;;
37787;SDS011;23627;53.302;-6.362;2024-02-15T12:39:47;1.00;;;0.40;;
37787;SDS011;23627;53.302;-6.362;2024-02-15T12:42:14;0.85;;;0.50;;
37787;SDS011;23627;53.302;-6.362;2024-02-15T12:44:44;1.63;;;0.50;;
37787;SDS011;23627;53.302;-6.362;2024-02-15T12:47:21;1.00;;;0.60;;
37787;SDS011;23627;53.302;-6.362;2024-02-15T12:49:48;1.27;;;0.50;;
37787;SDS011;23627;53.302;-6.362;2024-02-15T12:52:33;0.77;;;0.50;;
37787;SDS011;23627;53.302;-6.362;2024-02-15T12:55:10;1.20;;;0.70;;
37787;SDS011;23627;53.302;-6.362;2024-02-15T12:57:37;1.40;;;0.60;;
37787;SDS011;23627;53.302;-6.362;2024-02-15T13:00:09;1.48;;;0.80;;
37787;SDS011;23627;53.302;-6.362;2024-02-15T13:02:38;1.35;;;0.70;;
37787;SDS011;23627;53.302;-6.362;2024-02-15T13:05:04;1.35;;;0.60;;
37787;SDS011;23627;53.302;-6.362;2024-02-15T13:07:33;1.92;;;0.52;;
37787;SDS011;23627;53.302;-6.362;2024-02-15T13:10:01;0.82;;;0.50;;
37787;SDS011;23627;53.302;-6.362;2024-02-15T13:12:26;1.27;;;0.52;;
37787;SDS011;23627;53.302;-6.362;2024-02-15T13:14:53;1.20;;;0.60;;
37787;SDS011;23627;53.302;-6.362;2024-02-15T13:17:19;0.90;;;0.52;;
37787;SDS011;23627;53.302;-6.362;2024-02-15T13:19:45;1.08;;;0.60;;
37787;SDS011;23627;53.302;-6.362;2024-02-15T13:22:14;1.42;;;0.50;;
37787;SDS011;23627;53.302;-6.362;2024-02-15T13:24:50;1.13;;;0.70;;
37787;SDS011;23627;53.302;-6.362;2024-02-15T13:27:16;1.63;;;0.63;;
37787;SDS011;23627;53.302;-6.362;2024-02-15T13:29:41;1.08;;;0.47;;
37787;SDS011;23627;53.302;-6.362;2024-02-15T13:32:09;0.70;;;0.50;;
37787;SDS011;23627;53.302;-6.362;2024-02-15T13:34:37;1.30;;;0.60;;
37787;SDS011;23627;53.302;-6.362;2024-02-15T13:37:05;0.98;;;0.50;;
37787;SDS011;23627;53.302;-6.362;2024-02-15T13:39:30;1.20;;;0.60;;
37787;SDS011;23627;53.302;-6.362;2024-02-15T13:42:02;1.50;;;0.52;;
37787;SDS011;23627;53.302;-6.362;2024-02-15T13:44:28;1.25;;;0.68;;
37787;SDS011;23627;53.302;-6.362;2024-02-15T13:46:55;0.90;;;0.60;;
37787;SDS011;23627;53.302;-6.362;2024-02-15T13:49:22;1.13;;;0.50;;
37787;SDS011;23627;53.302;-6.362;2024-02-15T13:51:48;1.88;;;0.60;;
37787;SDS011;23627;53.302;-6.362;2024-02-15T13:54:16;2.80;;;0.70;;
37787;SDS011;23627;53.302;-6.362;2024-02-15T13:56:43;1.25;;;0.60;;
37787;SDS011;23627;53.302;-6.362;2024-02-15T13:59:09;1.25;;;0.50;;
37787;SDS011;23627;53.302;-6.362;2024-02-15T14:01:35;2.80;;;0.60;;
37787;SDS011;23627;53.302;-6.362;2024-02-15T14:06:34;1.00;;;0.50;;
37787;SDS011;23627;53.302;-6.362;2024-02-15T14:09:02;1.02;;;0.50;;
37787;SDS011;23627;53.302;-6.362;2024-02-15T14:11:28;1.85;;;0.60;;
37787;SDS011;23627;53.302;-6.362;2024-02-15T14:13:54;1.50;;;0.50;;
37787;SDS011;23627;53.302;-6.362;2024-02-15T14:16:23;1.52;;;0.50;;
37787;SDS011;23627;53.302;-6.362;2024-02-15T14:18:49;1.77;;;0.65;;
37787;SDS011;23627;53.302;-6.362;2024-02-15T14:21:16;1.52;;;0.45;;
37787;SDS011;23627;53.302;-6.362;2024-02-15T14:23:43;2.15;;;0.55;;
37787;SDS011;23627;53.302;-6.362;2024-02-15T14:26:09;1.52;;;0.55;;
37787;SDS011;23627;53.302;-6.362;2024-02-15T14:28:35;1.63;;;0.70;;
37787;SDS011;23627;53.302;-6.362;2024-02-15T14:31:04;1.48;;;0.55;;
37787;SDS011;23627;53.302;-6.362;2024-02-15T14:33:53;2.08;;;0.50;;
37787;SDS011;23627;53.302;-6.362;2024-02-15T14:36:19;1.92;;;0.60;;
37787;SDS011;23627;53.302;-6.362;2024-02-15T14:38:45;1.92;;;0.68;;
37787;SDS011;23627;53.302;-6.362;2024-02-15T14:41:11;1.60;;;0.60;;
37787;SDS011;23627;53.302;-6.362;2024-02-15T14:43:37;1.50;;;0.40;;
37787;SDS011;23627;53.302;-6.362;2024-02-15T14:46:03;3.22;;;0.60;;
37787;SDS011;23627;53.302;-6.362;2024-02-15T14:48:33;1.73;;;0.55;;
37787;SDS011;23627;53.302;-6.362;2024-02-15T14:50:59;1.27;;;0.60;;
37787;SDS011;23627;53.302;-6.362;2024-02-15T14:53:26;1.63;;;0.60;;
37787;SDS011;23627;53.302;-6.362;2024-02-15T14:55:54;2.33;;;0.70;;
37787;SDS011;23627;53.302;-6.362;2024-02-15T14:58:20;1.90;;;0.70;;
37787;SDS011;23627;53.302;-6.362;2024-02-15T15:00:49;1.77;;;0.60;;